Time;durP1;ratioP1;P1;durP2;ratioP2;P2;SDS_P1;SDS_P2;PMS_P1;PMS_P2;Temp;Humidity;BMP_temperature;BMP_pressure;BME280_temperature;BME280_humidity;BME280_pressure;Samples;Min_cycle;Max_cycle;Signal;HPM_P1;HPM_P2
2023/03/23 00:01:31;;;;;;;;;;;;;;;17.48;44.84;92942.63;5051242;28;20302;-90
2023/03/23 00:03:57;;;;;;;;;;;;;;;17.45;44.69;92949.84;5050286;28;19925;-89
2023/03/23 00:06:22;;;;;;;;;;;;;;;17.44;44.57;92953.84;5033172;28;19939;-89
2023/03/23 00:08:49;;;;;;;;;;;;;;;17.46;44.69;92953.31;5067187;28;19923;-88
2023/03/23 00:11:15;;;;;;;;;;;;;;;17.44;44.82;92942.16;5076752;28;20527;-90
2023/03/23 00:13:41;;;;;;;;;;;;;;;17.45;45.09;92947.13;5070490;28;20374;-90
2023/03/23 00:16:16;;;;;;;;;;;;;;;17.46;44.99;92934.94;5069102;28;19927;-90
2023/03/23 00:18:42;;;;;;;;;;;;;;;17.47;44.69;92935.69;5044768;28;19925;-90
2023/03/23 00:21:07;;;;;;;;;;;;;;;17.47;44.91;92938.41;5061945;28;19924;-89
2023/03/23 00:23:32;;;;;;;;;;;;;;;17.45;44.76;92946.38;5033450;28;19996;-88
2023/03/23 00:25:57;;;;;;;;;;;;;;;17.42;45.03;92934.50;5054357;28;19925;-89
2023/03/23 00:28:26;;;;;;;;;;;;;;;17.45;44.87;92938.91;5047034;28;19968;-90
2023/03/23 00:30:58;;;;;;;;;;;;;;;17.45;44.72;92938.91;5079274;28;19924;-90
2023/03/23 00:33:24;;;;;;;;;;;;;;;17.44;44.82;92934.72;5060533;28;20480;-90
2023/03/23 00:35:52;;;;;;;;;;;;;;;17.45;44.86;92924.53;5061295;28;19970;-89
2023/03/23 00:38:18;;;;;;;;;;;;;;;17.43;44.60;92927.78;5057785;28;19959;-89
2023/03/23 00:40:43;;;;;;;;;;;;;;;17.44;44.70;92917.56;5066684;28;19967;-90
2023/03/23 00:43:13;;;;;;;;;;;;;;;17.42;45.02;92931.00;5065889;28;19978;-90
2023/03/23 00:45:38;;;;;;;;;;;;;;;17.41;45.00;92933.00;5045583;28;19970;-89
2023/03/23 00:48:04;;;;;;;;;;;;;;;17.43;44.64;92927.03;5056174;28;19960;-89
2023/03/23 00:50:29;;;;;;;;;;;;;;;17.41;44.57;92918.59;5057275;28;19924;-90
2023/03/23 00:52:56;;;;;;;;;;;;;;;17.42;44.96;92918.09;5069664;28;19924;-89
2023/03/23 00:55:21;;;;;;;;;;;;;;;17.42;44.98;92917.34;5052165;28;19928;-90
2023/03/23 00:57:48;;;;;;;;;;;;;;;17.42;44.56;92920.09;5045013;28;19990;-90
2023/03/23 01:00:14;;;;;;;;;;;;;;;17.43;44.88;92913.38;5054678;28;19932;-90
2023/03/23 01:02:40;;;;;;;;;;;;;;;17.43;44.84;92916.84;5069689;28;19928;-90
2023/03/23 01:05:06;;;;;;;;;;;;;;;17.45;44.93;92911.59;5064884;28;19928;-90
2023/03/23 01:07:31;;;;;;;;;;;;;;;17.42;44.63;92900.97;5049719;28;19936;-89
2023/03/23 01:09:57;;;;;;;;;;;;;;;17.43;44.64;92902.44;5065469;28;19928;-89
2023/03/23 01:12:24;;;;;;;;;;;;;;;17.42;44.89;92909.16;5068801;28;19939;-89
2023/03/23 01:14:50;;;;;;;;;;;;;;;17.40;44.71;92901.47;5086043;28;19927;-90
2023/03/23 01:17:15;;;;;;;;;;;;;;;17.42;45.02;92898.22;5054272;28;20424;-90
2023/03/23 01:19:42;;;;;;;;;;;;;;;17.41;44.86;92907.69;5062460;28;19924;-90
2023/03/23 01:22:07;;;;;;;;;;;;;;;17.40;45.06;92898.75;5079098;28;20382;-90
2023/03/23 01:24:35;;;;;;;;;;;;;;;17.40;44.63;92900.72;5066902;28;19962;-89
2023/03/23 01:27:06;;;;;;;;;;;;;;;17.40;44.64;92898.75;5068533;28;19967;-90
2023/03/23 01:29:31;;;;;;;;;;;;;;;17.41;45.05;92897.50;5076505;28;19924;-90
2023/03/23 01:31:56;;;;;;;;;;;;;;;17.37;44.90;92888.84;5047191;28;19928;-89
2023/03/23 01:34:22;;;;;;;;;;;;;;;17.35;44.68;92896.81;5068435;28;20001;-90
2023/03/23 01:36:47;;;;;;;;;;;;;;;17.38;45.07;92895.78;5055835;28;19928;-89
2023/03/23 01:39:12;;;;;;;;;;;;;;;17.38;44.74;92889.56;5049622;28;19931;-90
2023/03/23 01:41:40;;;;;;;;;;;;;;;17.37;44.99;92894.31;5054113;28;19928;-89
2023/03/23 01:44:06;;;;;;;;;;;;;;;17.38;44.81;92882.13;5069294;28;20373;-89
2023/03/23 01:46:32;;;;;;;;;;;;;;;17.41;44.69;92883.09;5069332;28;19920;-89
2023/03/23 01:48:58;;;;;;;;;;;;;;;17.37;45.11;92879.91;5068106;28;19966;-90
2023/03/23 01:51:23;;;;;;;;;;;;;;;17.37;44.90;92883.38;5052649;28;19936;-90
2023/03/23 01:53:50;;;;;;;;;;;;;;;17.38;45.05;92876.66;5069515;28;20430;-89
2023/03/23 01:56:16;;;;;;;;;;;;;;;17.39;44.71;92877.41;5052793;28;19928;-89
2023/03/23 01:58:41;;;;;;;;;;;;;;;17.36;44.74;92876.44;5067942;28;19931;-89
2023/03/23 02:01:07;;;;;;;;;;;;;;;17.36;44.59;92872.97;5055882;28;19925;-89
2023/03/23 02:03:33;;;;;;;;;;;;;;;17.36;44.86;92875.69;5049155;28;19974;-89
2023/03/23 02:05:58;;;;;;;;;;;;;;;17.32;44.81;92878.72;5054238;28;19963;-90
2023/03/23 02:08:23;;;;;;;;;;;;;;;17.33;44.80;92877.47;5072434;28;19939;-89
2023/03/23 02:10:49;;;;;;;;;;;;;;;17.36;45.09;92878.44;5072098;28;20380;-90
2023/03/23 02:13:14;;;;;;;;;;;;;;;17.38;45.12;92873.19;5071500;28;19974;-89
2023/03/23 02:15:43;;;;;;;;;;;;;;;17.37;45.07;92872.44;5072314;28;19950;-89
2023/03/23 02:18:08;;;;;;;;;;;;;;;17.33;44.69;92872.00;5054414;28;19982;-89
2023/03/23 02:20:34;;;;;;;;;;;;;;;17.33;44.96;92871.25;5038421;28;19928;-90
2023/03/23 02:23:11;;;;;;;;;;;;;;;17.32;44.67;92873.25;5076147;28;19928;-88
2023/03/23 02:25:52;;;;;;;;;;;;;;;17.31;45.21;92869.06;5072045;28;19924;-89
2023/03/23 02:28:22;;;;;;;;;;;;;;;17.33;44.66;92866.53;5087058;28;19927;-89
2023/03/23 02:31:05;;;;;;;;;;;;;;;17.33;44.79;92874.72;5035555;28;19924;-90
2023/03/23 02:33:41;;;;;;;;;;;;;;;17.33;44.94;92871.25;5069873;28;19928;-90
2023/03/23 02:36:09;;;;;;;;;;;;;;;17.34;44.53;92864.53;5049703;28;19924;-88
2023/03/23 02:38:37;;;;;;;;;;;;;;;17.34;44.63;92864.53;5049720;28;19982;-89
2023/03/23 02:41:03;;;;;;;;;;;;;;;17.32;45.00;92870.53;5058299;28;19924;-89
2023/03/23 02:43:30;;;;;;;;;;;;;;;17.32;44.54;92867.06;5072865;28;20287;-90
2023/03/23 02:45:55;;;;;;;;;;;;;;;17.32;44.54;92861.63;5065651;28;19929;-90
2023/03/23 02:48:22;;;;;;;;;;;;;;;17.31;44.63;92862.88;5060979;28;19986;-89
2023/03/23 02:50:47;;;;;;;;;;;;;;;17.33;44.93;92868.53;5061210;28;19928;-89
2023/03/23 02:53:13;;;;;;;;;;;;;;;17.32;44.83;92862.31;5070265;28;20136;-90
2023/03/23 02:55:41;;;;;;;;;;;;;;;17.32;44.58;92869.81;5049664;28;19921;-89
2023/03/23 02:58:07;;;;;;;;;;;;;;;17.30;44.59;92864.84;5047905;28;19924;-88
2023/03/23 03:00:33;;;;;;;;;;;;;;;17.30;44.62;92862.13;5052803;28;19931;-89
2023/03/23 03:02:58;;;;;;;;;;;;;;;17.30;44.94;92862.13;5070918;28;19962;-89
2023/03/23 03:05:24;;;;;;;;;;;;;;;17.29;44.91;92857.91;5070618;28;19972;-89
2023/03/23 03:07:52;;;;;;;;;;;;;;;17.30;44.76;92859.41;5057469;28;19970;-89
2023/03/23 03:10:28;;;;;;;;;;;;;;;17.32;44.95;92859.59;5050685;28;20491;-89
2023/03/23 03:12:55;;;;;;;;;;;;;;;17.29;44.66;92860.66;5047904;28;19935;-89
2023/03/23 03:15:26;;;;;;;;;;;;;;;17.28;45.02;92864.63;5054017;28;19920;-88
2023/03/23 03:17:53;;;;;;;;;;;;;;;17.29;44.66;92860.66;5054323;28;19958;-89
2023/03/23 03:20:19;;;;;;;;;;;;;;;17.26;45.01;92864.41;5070796;28;19924;-90
2023/03/23 03:22:44;;;;;;;;;;;;;;;17.27;44.74;92867.88;5042290;28;19938;-89
2023/03/23 03:25:12;;;;;;;;;;;;;;;17.26;44.76;92872.59;5067274;28;19963;-89
2023/03/23 03:27:40;;;;;;;;;;;;;;;17.29;45.12;92873.56;5037581;28;19928;-89
2023/03/23 03:30:06;;;;;;;;;;;;;;;17.28;44.95;92872.09;5050569;28;19920;-89
2023/03/23 03:32:32;;;;;;;;;;;;;;;17.30;44.82;92873.06;5050836;28;19925;-89
2023/03/23 03:35:01;;;;;;;;;;;;;;;17.27;44.61;92865.88;5064026;28;20019;-90
2023/03/23 03:37:26;;;;;;;;;;;;;;;17.26;44.65;92867.13;5063939;28;20035;-89
2023/03/23 03:39:51;;;;;;;;;;;;;;;17.26;44.92;92863.66;5064108;28;20371;-89
2023/03/23 03:42:16;;;;;;;;;;;;;;;17.25;44.70;92871.13;5044470;28;19928;-88
2023/03/23 03:44:42;;;;;;;;;;;;;;;17.24;44.76;92863.44;5051118;28;19924;-88
2023/03/23 03:47:07;;;;;;;;;;;;;;;17.24;45.11;92866.91;5051868;28;20036;-89
2023/03/23 03:49:32;;;;;;;;;;;;;;;17.26;44.96;92864.41;5051213;28;19921;-89
2023/03/23 03:51:58;;;;;;;;;;;;;;;17.29;44.90;92871.56;5041192;28;20046;-89
2023/03/23 03:54:23;;;;;;;;;;;;;;;17.26;44.91;92875.34;5047181;28;19927;-89
2023/03/23 03:56:51;;;;;;;;;;;;;;;17.26;44.92;92869.88;5048671;28;19966;-90
2023/03/23 03:59:16;;;;;;;;;;;;;;;17.23;44.76;92870.91;5049615;28;19924;-90
2023/03/23 04:01:42;;;;;;;;;;;;;;;17.24;44.65;92869.66;5034507;28;19924;-88
2023/03/23 04:04:07;;;;;;;;;;;;;;;17.25;45.08;92875.84;5053284;28;19981;-90
2023/03/23 04:06:35;;;;;;;;;;;;;;;17.25;44.99;92873.13;5069579;28;19981;-90
2023/03/23 04:09:01;;;;;;;;;;;;;;;17.24;45.02;92877.09;5070000;28;19931;-90
2023/03/23 04:11:26;;;;;;;;;;;;;;;17.25;44.92;92876.59;5079489;28;19929;-88
2023/03/23 04:13:51;;;;;;;;;;;;;;;17.23;44.85;92872.91;5048912;28;19928;-89
2023/03/23 04:16:16;;;;;;;;;;;;;;;17.23;45.04;92876.38;5049828;28;19936;-89
2023/03/23 04:18:42;;;;;;;;;;;;;;;17.22;45.14;92879.63;5047088;28;20307;-89
2023/03/23 04:21:07;;;;;;;;;;;;;;;17.21;44.87;92878.88;5046730;28;19964;-89
2023/03/23 04:23:34;;;;;;;;;;;;;;;17.21;45.16;92869.94;5055515;28;19928;-90
2023/03/23 04:26:00;;;;;;;;;;;;;;;17.22;45.06;92883.09;5050028;28;19944;-89
2023/03/23 04:28:25;;;;;;;;;;;;;;;17.21;44.63;92878.88;5049333;28;20367;-89
2023/03/23 04:30:52;;;;;;;;;;;;;;;17.21;44.87;92876.13;5050172;28;19924;-90
2023/03/23 04:33:18;;;;;;;;;;;;;;;17.23;45.14;92876.38;5060286;28;19924;-90
2023/03/23 04:35:45;;;;;;;;;;;;;;;17.21;45.16;92878.13;5042749;28;19931;-89
2023/03/23 04:38:10;;;;;;;;;;;;;;;17.23;45.10;92878.34;5068921;28;19971;-89
2023/03/23 04:40:36;;;;;;;;;;;;;;;17.21;44.87;92883.59;5087818;28;19955;-89
2023/03/23 04:43:05;;;;;;;;;;;;;;;17.25;44.80;92884.03;5065798;28;19981;-90
2023/03/23 04:45:30;;;;;;;;;;;;;;;17.26;45.07;92886.25;5064062;28;19920;-88
2023/03/23 04:47:57;;;;;;;;;;;;;;;17.26;44.84;92886.25;5033919;28;19946;-88
2023/03/23 04:50:23;;;;;;;;;;;;;;;17.25;44.86;92884.78;5051711;28;19935;-90
2023/03/23 04:52:51;;;;;;;;;;;;;;;17.25;45.00;92890.25;5062984;28;20007;-89
2023/03/23 04:55:16;;;;;;;;;;;;;;;17.25;45.18;92887.53;5050435;28;19924;-88
2023/03/23 04:57:42;;;;;;;;;;;;;;;17.26;45.03;92899.19;5051894;28;19936;-88
2023/03/23 05:00:12;;;;;;;;;;;;;;;17.25;45.18;92892.97;5059903;28;19925;-90
2023/03/23 05:02:39;;;;;;;;;;;;;;;17.25;45.15;92884.78;5052421;28;19936;-91
2023/03/23 05:05:06;;;;;;;;;;;;;;;17.27;44.87;92890.47;5030938;28;19935;-91
2023/03/23 05:07:31;;;;;;;;;;;;;;;17.27;44.99;92895.94;5063116;28;20730;-91
2023/03/23 05:09:57;;;;;;;;;;;;;;;17.27;45.25;92897.94;5064816;28;20002;-92
2023/03/23 05:12:22;;;;;;;;;;;;;;;17.26;45.03;92901.91;5045358;28;19933;-91
2023/03/23 05:14:47;;;;;;;;;;;;;;;17.26;45.10;92910.84;5040928;28;20612;-91
2023/03/23 05:17:16;;;;;;;;;;;;;;;17.23;45.29;92906.41;5068326;28;19924;-89
2023/03/23 05:19:43;;;;;;;;;;;;;;;17.24;45.11;92912.63;5053865;28;19924;-90
2023/03/23 05:22:09;;;;;;;;;;;;;;;17.25;45.03;92912.09;5078802;28;19921;-90
2023/03/23 05:24:34;;;;;;;;;;;;;;;17.25;45.14;92916.81;5058542;28;20405;-90
2023/03/23 05:27:00;;;;;;;;;;;;;;;17.24;44.99;92921.56;5075770;28;19928;-90
2023/03/23 05:29:26;;;;;;;;;;;;;;;17.23;44.88;92914.59;5051096;28;19925;-91
2023/03/23 05:31:55;;;;;;;;;;;;;;;17.27;45.01;92906.88;5057357;28;20516;-90
2023/03/23 05:34:20;;;;;;;;;;;;;;;17.29;44.74;92907.09;5066795;28;20171;-90
2023/03/23 05:36:46;;;;;;;;;;;;;;;17.33;45.12;92909.50;5058299;28;20023;-89
2023/03/23 05:39:12;;;;;;;;;;;;;;;17.34;44.96;92911.00;5060608;28;20645;-91
2023/03/23 05:41:38;;;;;;;;;;;;;;;17.31;44.61;92917.50;5049289;28;19936;-90
2023/03/23 05:44:13;;;;;;;;;;;;;;;17.30;44.68;92918.75;5069171;28;19960;-90
2023/03/23 05:46:38;;;;;;;;;;;;;;;17.29;45.12;92925.47;5054633;28;20015;-88
2023/03/23 05:49:04;;;;;;;;;;;;;;;17.31;44.82;92920.25;5059845;28;19989;-87
2023/03/23 05:51:30;;;;;;;;;;;;;;;17.31;44.88;92922.97;5047420;28;19925;-91
2023/03/23 05:53:55;;;;;;;;;;;;;;;17.27;44.87;92914.31;5038071;28;19982;-87
2023/03/23 05:56:21;;;;;;;;;;;;;;;17.27;45.11;92919.78;5064638;28;19928;-90
2023/03/23 05:58:46;;;;;;;;;;;;;;;17.27;44.51;92938.91;5050489;28;20053;-89
2023/03/23 06:01:13;;;;;;;;;;;;;;;17.19;44.29;92940.72;5051101;28;19924;-90
2023/03/23 06:03:39;;;;;;;;;;;;;;;17.13;43.73;92936.06;5041260;28;19929;-89
2023/03/23 06:06:04;;;;;;;;;;;;;;;17.09;43.63;92937.63;5065837;28;19929;-89
2023/03/23 06:08:30;;;;;;;;;;;;;;;17.02;44.15;92943.66;5048000;28;19993;-91
2023/03/23 06:10:56;;;;;;;;;;;;;;;17.01;44.01;92928.50;5067998;28;19925;-87
2023/03/23 06:13:21;;;;;;;;;;;;;;;17.06;44.06;92944.09;5066965;28;19937;-85
2023/03/23 06:15:47;;;;;;;;;;;;;;;17.09;43.87;92943.81;5047224;28;19921;-92
2023/03/23 06:18:12;;;;;;;;;;;;;;;17.10;44.06;92950.03;5052366;28;19932;-90
2023/03/23 06:20:38;;;;;;;;;;;;;;;17.10;43.99;92952.75;5063900;28;20635;-90
2023/03/23 06:23:05;;;;;;;;;;;;;;;17.12;43.95;92948.25;5048282;28;20027;-85
2023/03/23 06:25:30;;;;;;;;;;;;;;;17.16;44.06;92947.94;5066548;28;19925;-91
2023/03/23 06:27:57;;;;;;;;;;;;;;;17.17;44.10;92948.69;5055795;28;19925;-91
2023/03/23 06:30:22;;;;;;;;;;;;;;;17.18;44.05;92941.97;5034946;28;20419;-88
2023/03/23 06:32:48;;;;;;;;;;;;;;;17.19;44.57;92946.94;5037177;28;19924;-87
2023/03/23 06:35:13;;;;;;;;;;;;;;;17.20;44.55;92956.59;5070978;28;19971;-89
2023/03/23 06:37:39;;;;;;;;;;;;;;;17.20;44.71;92955.88;5066695;28;19974;-87
2023/03/23 06:40:08;;;;;;;;;;;;;;;17.25;44.39;92955.06;5076079;28;19998;-91
2023/03/23 06:42:33;;;;;;;;;;;;;;;17.25;44.80;92950.34;5023904;28;19929;-86
2023/03/23 06:45:00;;;;;;;;;;;;;;;17.26;44.98;92951.09;5045221;28;19924;-88
2023/03/23 06:47:26;;;;;;;;;;;;;;;17.26;44.42;92953.81;5014249;28;19990;-89
2023/03/23 06:49:51;;;;;;;;;;;;;;;17.25;44.71;92960.53;5003143;28;19937;-86
2023/03/23 06:52:17;;;;;;;;;;;;;;;17.26;44.69;92954.56;5022974;28;20399;-87
2023/03/23 06:54:42;;;;;;;;;;;;;;;17.28;44.36;92956.78;5042577;28;19929;-87
2023/03/23 06:57:08;;;;;;;;;;;;;;;17.26;44.54;92959.28;5016948;28;20380;-86
2023/03/23 06:59:33;;;;;;;;;;;;;;;17.27;44.46;92963.50;5029216;28;19986;-90
2023/03/23 07:01:58;;;;;;;;;;;;;;;17.27;44.49;92964.22;5003144;28;19959;-87
2023/03/23 07:04:23;;;;;;;;;;;;;;;17.28;43.98;92971.19;5029164;28;20015;-87
2023/03/23 07:06:49;;;;;;;;;;;;;;;17.32;44.17;92966.13;5041763;28;19982;-91
2023/03/23 07:09:15;;;;;;;;;;;;;;;17.33;43.91;92964.88;5033415;28;19932;-86
2023/03/23 07:11:41;;;;;;;;;;;;;;;17.37;44.37;92981.00;5016343;28;20546;-87
2023/03/23 07:14:06;;;;;;;;;;;;;;;17.35;44.50;92976.03;5030016;28;19929;-88
2023/03/23 07:16:31;;;;;;;;;;;;;;;17.39;44.73;92981.97;5016820;28;19921;-87
2023/03/23 07:18:57;;;;;;;;;;;;;;;17.40;44.46;92971.78;5029967;28;20436;-89
2023/03/23 07:21:22;;;;;;;;;;;;;;;17.41;44.69;92978.72;5012585;28;19936;-89
2023/03/23 07:23:47;;;;;;;;;;;;;;;17.41;44.38;92973.25;5039397;28;19933;-88
2023/03/23 07:26:13;;;;;;;;;;;;;;;17.39;44.20;92984.69;5035488;28;19936;-88
2023/03/23 07:28:39;;;;;;;;;;;;;;;17.41;44.06;92990.38;5031442;28;19933;-88
2023/03/23 07:31:05;;;;;;;;;;;;;;;17.43;44.42;92987.16;5027797;28;19925;-89
2023/03/23 07:33:31;;;;;;;;;;;;;;;17.44;44.29;92992.09;5044430;28;20011;-87
2023/03/23 07:35:58;;;;;;;;;;;;;;;17.44;44.37;92985.88;5028965;28;19925;-86
2023/03/23 07:38:25;;;;;;;;;;;;;;;17.44;44.41;92986.63;5027292;28;19948;-87
2023/03/23 07:40:50;;;;;;;;;;;;;;;17.45;44.35;92982.66;5027816;28;20027;-88
2023/03/23 07:43:15;;;;;;;;;;;;;;;17.47;44.64;92982.88;5025833;28;20091;-88
2023/03/23 07:45:41;;;;;;;;;;;;;;;17.48;44.25;92978.16;5011033;28;19955;-89
2023/03/23 07:48:06;;;;;;;;;;;;;;;17.48;44.31;92989.06;5038332;28;19925;-89
2023/03/23 07:50:32;;;;;;;;;;;;;;;17.47;44.01;92979.41;5011414;28;19921;-88
2023/03/23 07:52:57;;;;;;;;;;;;;;;17.47;43.93;92984.88;5021473;28;20551;-87
2023/03/23 07:55:24;;;;;;;;;;;;;;;17.47;43.96;92982.13;5025751;28;19925;-88
2023/03/23 07:57:50;;;;;;;;;;;;;;;17.44;43.82;92981.16;5031620;28;19925;-86
2023/03/23 08:00:18;;;;;;;;;;;;;;;17.41;43.69;92990.38;5030622;28;20031;-87
2023/03/23 08:02:43;;;;;;;;;;;;;;;17.41;43.20;92992.38;5043641;28;19929;-86
2023/03/23 08:05:09;;;;;;;;;;;;;;;17.40;42.99;92991.63;5025694;28;19929;-87
2023/03/23 08:07:35;;;;;;;;;;;;;;;17.38;43.33;92990.66;5026849;28;19933;-88
2023/03/23 08:10:02;;;;;;;;;;;;;;;17.35;43.07;92981.50;5042638;28;20384;-89
2023/03/23 08:12:27;;;;;;;;;;;;;;;17.34;43.67;92984.75;5028652;28;20391;-88
2023/03/23 08:14:53;;;;;;;;;;;;;;;17.36;43.46;92982.25;5030859;28;19925;-88
2023/03/23 08:17:19;;;;;;;;;;;;;;;17.37;43.88;92975.53;5026481;28;19925;-88
2023/03/23 08:19:45;;;;;;;;;;;;;;;17.37;44.00;92972.78;5026720;28;19932;-88
2023/03/23 08:22:10;;;;;;;;;;;;;;;17.37;43.65;92983.72;5026850;28;19925;-87
2023/03/23 08:24:36;;;;;;;;;;;;;;;17.37;43.98;92979.00;5021387;28;19983;-88
2023/03/23 08:27:01;;;;;;;;;;;;;;;17.36;44.08;92991.19;5015803;28;19921;-87
2023/03/23 08:29:26;;;;;;;;;;;;;;;17.37;43.92;92984.47;5011174;28;19949;-87
2023/03/23 08:31:52;;;;;;;;;;;;;;;17.37;43.84;92989.94;5014980;28;19922;-88
2023/03/23 08:34:17;;;;;;;;;;;;;;;17.35;43.81;92984.25;5006345;28;20439;-87
2023/03/23 08:36:46;;;;;;;;;;;;;;;17.35;43.44;92978.03;5025752;28;19929;-87
2023/03/23 08:39:11;;;;;;;;;;;;;;;17.35;43.17;92981.50;5027537;28;20019;-86
2023/03/23 08:41:37;;;;;;;;;;;;;;;17.35;43.04;92978.03;5035668;28;20024;-88
2023/03/23 08:44:03;;;;;;;;;;;;;;;17.34;42.97;92965.63;5040671;28;19929;-88
2023/03/23 08:46:28;;;;;;;;;;;;;;;17.32;42.75;92952.47;5043991;28;19917;-86
2023/03/23 08:48:54;;;;;;;;;;;;;;;17.32;43.28;92947.00;5041081;28;19971;-88
2023/03/23 08:51:19;;;;;;;;;;;;;;;17.34;43.30;92943.78;5035596;28;19925;-86
2023/03/23 08:53:44;;;;;;;;;;;;;;;17.33;42.71;92939.56;5034868;28;20390;-86
2023/03/23 08:56:10;;;;;;;;;;;;;;;17.33;42.64;92945.75;5029664;28;20454;-88
2023/03/23 08:58:37;;;;;;;;;;;;;;;17.40;42.91;92947.19;5040892;28;20394;-90
2023/03/23 09:01:02;;;;;;;;;;;;;;;17.38;42.93;92944.97;5019781;28;19964;-87
2023/03/23 09:03:28;;;;;;;;;;;;;;;17.37;42.60;92937.28;5032493;28;19983;-86
2023/03/23 09:05:53;;;;;;;;;;;;;;;17.35;42.91;92937.78;5045480;28;19978;-87
2023/03/23 09:08:18;;;;;;;;;;;;;;;17.35;42.98;92946.00;5044542;28;19960;-88
2023/03/23 09:10:44;;;;;;;;;;;;;;;17.35;42.67;92942.50;5024637;28;20027;-89
2023/03/23 09:13:09;;;;;;;;;;;;;;;17.36;42.82;92947.47;5026226;28;19929;-87
2023/03/23 09:15:34;;;;;;;;;;;;;;;17.37;42.90;92948.94;5027316;28;20058;-85
2023/03/23 09:18:00;;;;;;;;;;;;;;;17.36;43.08;92957.66;5041003;28;19929;-86
2023/03/23 09:20:26;;;;;;;;;;;;;;;17.38;43.25;92955.16;5062000;28;20519;-88
2023/03/23 09:22:52;;;;;;;;;;;;;;;17.38;42.83;92944.22;5047970;28;19960;-86
2023/03/23 09:25:20;;;;;;;;;;;;;;;17.40;43.06;92942.47;5011767;28;19939;-87
2023/03/23 09:27:47;;;;;;;;;;;;;;;17.42;43.38;92937.22;5048535;28;19931;-87
2023/03/23 09:30:14;;;;;;;;;;;;;;;17.44;42.82;92942.91;5030004;28;19936;-87
2023/03/23 09:32:39;;;;;;;;;;;;;;;17.48;43.23;92932.44;5028259;28;19925;-89
2023/03/23 09:35:07;;;;;;;;;;;;;;;17.47;43.34;92933.69;5044742;28;19932;-86
2023/03/23 09:37:35;;;;;;;;;;;;;;;17.50;42.91;92931.91;5023040;28;19921;-87
2023/03/23 09:40:03;;;;;;;;;;;;;;;17.53;43.32;92941.81;5029500;28;20310;-86
2023/03/23 09:42:29;;;;;;;;;;;;;;;17.54;43.19;92924.13;5065275;28;20501;-87
2023/03/23 09:45:03;;;;;;;;;;;;;;;17.56;43.02;92938.03;5056925;28;20059;-88
2023/03/23 09:47:34;;;;;;;;;;;;;;;17.57;42.91;92933.31;5046868;28;19931;-90
2023/03/23 09:50:00;;;;;;;;;;;;;;;17.59;43.41;92937.00;5080222;28;19929;-87
2023/03/23 09:52:29;;;;;;;;;;;;;;;17.61;43.02;92939.97;5069835;28;19933;-87
2023/03/23 09:54:54;;;;;;;;;;;;;;;17.63;43.32;92928.50;5047973;28;20327;-88
2023/03/23 09:57:20;;;;;;;;;;;;;;;17.63;42.95;92934.72;5050487;28;19924;-89
2023/03/23 10:00:07;;;;;;;;;;;;;;;17.67;43.11;92940.66;5053021;28;19932;-87
2023/03/23 10:02:35;;;;;;;;;;;;;;;17.67;43.17;92929.72;5050834;28;20453;-87
2023/03/23 10:05:12;;;;;;;;;;;;;;;17.69;43.19;92938.16;5063884;28;19963;-88
2023/03/23 10:07:37;;;;;;;;;;;;;;;17.70;43.14;92930.69;5048822;28;19925;-88
2023/03/23 10:10:03;;;;;;;;;;;;;;;17.70;43.01;92930.69;5067788;28;20312;-88
2023/03/23 10:12:35;;;;;;;;;;;;;;;17.70;43.28;92936.16;5066449;28;20015;-88
2023/03/23 10:15:05;;;;;;;;;;;;;;;17.70;42.88;92931.44;5068434;28;19925;-88
2023/03/23 10:17:30;;;;;;;;;;;;;;;17.70;42.91;92927.97;5057260;28;19929;-88
2023/03/23 10:19:58;;;;;;;;;;;;;;;17.70;42.79;92927.97;5063988;28;19939;-88
2023/03/23 10:22:26;;;;;;;;;;;;;;;17.70;42.72;92927.97;5086704;28;19974;-89
2023/03/23 10:24:57;;;;;;;;;;;;;;;17.70;42.79;92928.69;5055915;28;19925;-88
2023/03/23 10:27:26;;;;;;;;;;;;;;;17.70;42.88;92925.97;5069827;28;19928;-90
2023/03/23 10:30:02;;;;;;;;;;;;;;;17.70;42.49;92931.44;5085009;28;19970;-88
2023/03/23 10:32:41;;;;;;;;;;;;;;;17.67;42.77;92926.25;5054310;28;20354;-88
2023/03/23 10:35:10;;;;;;;;;;;;;;;17.65;42.24;92934.97;5051119;28;19929;-87
2023/03/23 10:37:37;;;;;;;;;;;;;;;17.65;42.46;92924.03;5057541;28;19924;-89
2023/03/23 10:40:03;;;;;;;;;;;;;;;17.66;42.61;92930.25;5065718;28;19933;-87
2023/03/23 10:42:32;;;;;;;;;;;;;;;17.64;42.61;92928.03;5012261;28;20538;-87
2023/03/23 10:44:59;;;;;;;;;;;;;;;17.64;42.46;92925.28;5020459;28;20019;-87
2023/03/23 10:47:24;;;;;;;;;;;;;;;17.66;42.74;92930.25;5028638;28;19932;-87
2023/03/23 10:49:53;;;;;;;;;;;;;;;17.69;42.34;92935.41;5028737;28;19925;-87
2023/03/23 10:52:19;;;;;;;;;;;;;;;17.72;42.74;92933.66;5044107;28;19929;-88
2023/03/23 10:54:54;;;;;;;;;;;;;;;17.74;42.85;92934.59;5042026;28;20438;-88
2023/03/23 10:57:29;;;;;;;;;;;;;;;17.77;42.86;92924.59;5042424;28;19921;-89
2023/03/23 10:59:58;;;;;;;;;;;;;;;17.78;42.65;92923.34;5027921;28;20419;-88
2023/03/23 11:02:23;;;;;;;;;;;;;;;17.78;42.89;92926.81;5027192;28;20451;-87
2023/03/23 11:05:01;;;;;;;;;;;;;;;17.79;42.67;92935.78;5042379;28;19932;-88
2023/03/23 11:07:28;;;;;;;;;;;;;;;17.79;42.99;92925.56;5008894;28;19928;-88
2023/03/23 11:09:54;;;;;;;;;;;;;;;17.80;43.08;92923.56;5020574;28;19959;-88
2023/03/23 11:12:20;;;;;;;;;;;;;;;17.80;43.12;92927.06;5029764;28;19924;-90
2023/03/23 11:14:45;;;;;;;;;;;;;;;17.81;43.07;92923.06;5029760;28;20439;-88
2023/03/23 11:17:20;;;;;;;;;;;;;;;17.80;42.93;92929.78;5029034;28;19921;-89
2023/03/23 11:19:46;;;;;;;;;;;;;;;17.81;43.30;92923.06;5052360;28;19929;-91
2023/03/23 11:22:26;;;;;;;;;;;;;;;17.83;42.98;92936.22;5038164;28;20360;-89
2023/03/23 11:24:55;;;;;;;;;;;;;;;17.83;43.18;92928.00;5025722;28;19933;-89
2023/03/23 11:27:21;;;;;;;;;;;;;;;17.82;43.16;92929.28;5043895;28;19925;-91
2023/03/23 11:30:01;;;;;;;;;;;;;;;17.80;43.26;92929.78;5028698;28;19935;-89
2023/03/23 11:32:28;;;;;;;;;;;;;;;17.83;42.83;92924.53;5028225;28;19936;-90
2023/03/23 11:34:54;;;;;;;;;;;;;;;17.83;42.89;92922.53;5027855;28;19925;-88
2023/03/23 11:37:23;;;;;;;;;;;;;;;17.83;43.21;92927.28;5027148;28;19957;-92
2023/03/23 11:39:53;;;;;;;;;;;;;;;17.84;43.20;92920.56;5030527;28;19925;-89
2023/03/23 11:42:19;;;;;;;;;;;;;;;17.85;43.30;92922.03;5031927;28;20011;-88
2023/03/23 11:44:45;;;;;;;;;;;;;;;17.85;43.46;92922.78;5054632;28;19928;-88
2023/03/23 11:47:11;;;;;;;;;;;;;;;17.85;43.09;92919.28;5052889;28;19924;-90
2023/03/23 11:49:45;;;;;;;;;;;;;;;17.85;43.15;92927.50;5064350;28;20022;-87
2023/03/23 11:52:15;;;;;;;;;;;;;;;17.87;43.46;92930.44;5055524;28;20552;-87
2023/03/23 11:54:44;;;;;;;;;;;;;;;17.87;43.52;92930.44;5072150;28;19928;-87
2023/03/23 11:57:11;;;;;;;;;;;;;;;17.87;43.28;92919.50;5072472;28;19920;-87
2023/03/23 11:59:38;;;;;;;;;;;;;;;17.89;43.53;92914.28;5071987;28;20048;-87
2023/03/23 12:02:22;;;;;;;;;;;;;;;17.89;43.20;92919.75;5069135;28;20331;-88
2023/03/23 12:04:56;;;;;;;;;;;;;;;17.90;43.13;92929.41;5080941;28;19932;-86
2023/03/23 12:07:31;;;;;;;;;;;;;;;17.91;43.29;92925.44;5078212;28;19931;-88
2023/03/23 12:10:08;;;;;;;;;;;;;;;17.91;43.30;92925.44;5077174;28;19928;-88
2023/03/23 12:12:34;;;;;;;;;;;;;;;17.93;43.10;92920.19;5091172;28;19949;-88
2023/03/23 12:15:10;;;;;;;;;;;;;;;17.94;43.36;92925.13;5080389;28;20421;-89
2023/03/23 12:17:45;;;;;;;;;;;;;;;17.95;43.31;92918.41;5089332;28;19928;-89
2023/03/23 12:20:20;;;;;;;;;;;;;;;17.97;43.22;92909.69;5086992;28;19989;-88
2023/03/23 12:23:02;;;;;;;;;;;;;;;17.96;43.38;92914.41;5076157;28;19970;-88
2023/03/23 12:25:28;;;;;;;;;;;;;;;17.97;43.42;92912.41;5063190;28;20641;-89
2023/03/23 12:28:10;;;;;;;;;;;;;;;17.98;43.32;92908.41;5089362;28;19948;-89
2023/03/23 12:30:39;;;;;;;;;;;;;;;17.97;43.39;92913.13;5073926;28;19961;-89
2023/03/23 12:33:17;;;;;;;;;;;;;;;18.00;43.50;92903.88;5055991;28;19947;-90
2023/03/23 12:35:49;;;;;;;;;;;;;;;18.01;43.21;92912.84;5069095;28;19951;-88
2023/03/23 12:38:14;;;;;;;;;;;;;;;18.02;43.42;92903.38;5067643;28;20387;-87
2023/03/23 12:40:58;;;;;;;;;;;;;;;18.02;43.57;92903.38;5053920;28;19925;-87
2023/03/23 12:43:41;;;;;;;;;;;;;;;18.03;43.64;92905.59;5064689;28;20357;-89
2023/03/23 12:46:13;;;;;;;;;;;;;;;18.05;43.51;92914.00;5063601;28;19928;-89
2023/03/23 12:48:43;;;;;;;;;;;;;;;18.04;43.63;92903.59;5081037;28;19924;-89